sensor_id;sensor_type;location;lat;lon;timestamp;P1;durP1;ratioP1;P2;durP2;ratioP2
22019;SDS011;51298;53.362;-1.518;2023-10-09T00:02:24;4.18;;;1.67;;
22019;SDS011;51298;53.362;-1.518;2023-10-09T00:05:08;3.55;;;1.77;;
22019;SDS011;51298;53.362;-1.518;2023-10-09T00:07:55;4.35;;;1.80;;
22019;SDS011;51298;53.362;-1.518;2023-10-09T00:10:40;2.60;;;1.58;;
22019;SDS011;51298;53.362;-1.518;2023-10-09T00:13:36;5.88;;;1.80;;
22019;SDS011;51298;53.362;-1.518;2023-10-09T00:16:22;4.78;;;1.77;;
22019;SDS011;51298;53.362;-1.518;2023-10-09T00:19:18;6.40;;;1.92;;
22019;SDS011;51298;53.362;-1.518;2023-10-09T00:22:04;3.70;;;1.60;;
22019;SDS011;51298;53.362;-1.518;2023-10-09T00:24:55;3.58;;;1.55;;
22019;SDS011;51298;53.362;-1.518;2023-10-09T00:27:54;3.05;;;1.73;;
22019;SDS011;51298;53.362;-1.518;2023-10-09T00:30:42;3.00;;;1.60;;
22019;SDS011;51298;53.362;-1.518;2023-10-09T00:33:26;3.78;;;1.65;;
22019;SDS011;51298;53.362;-1.518;2023-10-09T00:36:14;3.13;;;1.50;;
22019;SDS011;51298;53.362;-1.518;2023-10-09T00:39:03;10.05;;;1.63;;
22019;SDS011;51298;53.362;-1.518;2023-10-09T00:42:03;3.90;;;1.90;;
22019;SDS011;51298;53.362;-1.518;2023-10-09T00:44:50;7.25;;;1.65;;
22019;SDS011;51298;53.362;-1.518;2023-10-09T00:47:34;6.00;;;1.83;;
22019;SDS011;51298;53.362;-1.518;2023-10-09T00:50:19;8.80;;;1.60;;
22019;SDS011;51298;53.362;-1.518;2023-10-09T00:53:03;7.75;;;1.92;;
22019;SDS011;51298;53.362;-1.518;2023-10-09T00:55:55;4.65;;;1.90;;
22019;SDS011;51298;53.362;-1.518;2023-10-09T00:58:40;3.58;;;1.48;;
22019;SDS011;51298;53.362;-1.518;2023-10-09T01:01:27;5.70;;;1.70;;
22019;SDS011;51298;53.362;-1.518;2023-10-09T01:04:23;2.83;;;1.33;;
22019;SDS011;51298;53.362;-1.518;2023-10-09T01:07:09;6.00;;;1.92;;
22019;SDS011;51298;53.362;-1.518;2023-10-09T01:10:00;3.70;;;1.50;;
22019;SDS011;51298;53.362;-1.518;2023-10-09T01:12:54;2.85;;;1.40;;
22019;SDS011;51298;53.362;-1.518;2023-10-09T01:15:39;4.13;;;1.73;;
22019;SDS011;51298;53.362;-1.518;2023-10-09T01:18:27;4.57;;;1.57;;
22019;SDS011;51298;53.362;-1.518;2023-10-09T01:21:20;3.10;;;1.40;;
22019;SDS011;51298;53.362;-1.518;2023-10-09T01:24:07;4.88;;;1.85;;
22019;SDS011;51298;53.362;-1.518;2023-10-09T01:26:52;12.48;;;1.85;;
22019;SDS011;51298;53.362;-1.518;2023-10-09T01:29:37;3.67;;;1.35;;
22019;SDS011;51298;53.362;-1.518;2023-10-09T01:32:23;4.95;;;1.77;;
22019;SDS011;51298;53.362;-1.518;2023-10-09T01:35:10;3.03;;;1.38;;
22019;SDS011;51298;53.362;-1.518;2023-10-09T01:38:07;5.47;;;2.10;;
22019;SDS011;51298;53.362;-1.518;2023-10-09T01:41:00;2.95;;;1.42;;
22019;SDS011;51298;53.362;-1.518;2023-10-09T01:43:51;3.85;;;1.48;;
22019;SDS011;51298;53.362;-1.518;2023-10-09T01:46:40;3.85;;;1.63;;
22019;SDS011;51298;53.362;-1.518;2023-10-09T01:49:25;3.55;;;1.40;;
22019;SDS011;51298;53.362;-1.518;2023-10-09T01:52:15;3.10;;;1.30;;
22019;SDS011;51298;53.362;-1.518;2023-10-09T01:55:00;4.55;;;2.03;;
22019;SDS011;51298;53.362;-1.518;2023-10-09T01:58:05;7.32;;;1.80;;
22019;SDS011;51298;53.362;-1.518;2023-10-09T02:00:50;3.10;;;1.58;;
22019;SDS011;51298;53.362;-1.518;2023-10-09T02:03:54;4.22;;;1.40;;
22019;SDS011;51298;53.362;-1.518;2023-10-09T02:06:46;4.43;;;2.13;;
22019;SDS011;51298;53.362;-1.518;2023-10-09T02:09:35;4.35;;;1.50;;
22019;SDS011;51298;53.362;-1.518;2023-10-09T02:12:28;4.07;;;1.80;;
22019;SDS011;51298;53.362;-1.518;2023-10-09T02:15:17;3.85;;;1.48;;
22019;SDS011;51298;53.362;-1.518;2023-10-09T02:18:21;3.17;;;1.45;;
22019;SDS011;51298;53.362;-1.518;2023-10-09T02:21:06;4.03;;;1.55;;
22019;SDS011;51298;53.362;-1.518;2023-10-09T02:23:51;4.28;;;1.50;;
22019;SDS011;51298;53.362;-1.518;2023-10-09T02:26:35;6.13;;;1.35;;
22019;SDS011;51298;53.362;-1.518;2023-10-09T02:29:22;7.05;;;1.90;;
22019;SDS011;51298;53.362;-1.518;2023-10-09T02:32:08;6.45;;;1.20;;
22019;SDS011;51298;53.362;-1.518;2023-10-09T02:35:09;2.85;;;1.45;;
22019;SDS011;51298;53.362;-1.518;2023-10-09T02:38:04;4.10;;;1.65;;
22019;SDS011;51298;53.362;-1.518;2023-10-09T02:40:51;3.13;;;1.55;;
22019;SDS011;51298;53.362;-1.518;2023-10-09T02:43:47;6.18;;;1.95;;
22019;SDS011;51298;53.362;-1.518;2023-10-09T02:46:31;3.53;;;1.88;;
22019;SDS011;51298;53.362;-1.518;2023-10-09T02:49:17;6.60;;;1.73;;
22019;SDS011;51298;53.362;-1.518;2023-10-09T02:52:01;3.42;;;1.42;;
22019;SDS011;51298;53.362;-1.518;2023-10-09T02:54:51;12.55;;;1.70;;
22019;SDS011;51298;53.362;-1.518;2023-10-09T02:57:46;7.18;;;1.80;;
22019;SDS011;51298;53.362;-1.518;2023-10-09T03:00:35;8.80;;;2.05;;
22019;SDS011;51298;53.362;-1.518;2023-10-09T03:03:20;5.45;;;1.90;;
22019;SDS011;51298;53.362;-1.518;2023-10-09T03:06:04;5.45;;;2.00;;
22019;SDS011;51298;53.362;-1.518;2023-10-09T03:08:55;3.38;;;1.63;;
22019;SDS011;51298;53.362;-1.518;2023-10-09T03:11:39;4.20;;;1.70;;
22019;SDS011;51298;53.362;-1.518;2023-10-09T03:14:24;5.85;;;1.65;;
22019;SDS011;51298;53.362;-1.518;2023-10-09T03:17:14;3.03;;;1.60;;
22019;SDS011;51298;53.362;-1.518;2023-10-09T03:19:58;6.85;;;1.88;;
22019;SDS011;51298;53.362;-1.518;2023-10-09T03:22:44;3.47;;;1.55;;
22019;SDS011;51298;53.362;-1.518;2023-10-09T03:25:29;4.45;;;1.80;;
22019;SDS011;51298;53.362;-1.518;2023-10-09T03:28:16;3.40;;;1.77;;
22019;SDS011;51298;53.362;-1.518;2023-10-09T03:31:00;6.22;;;1.83;;
22019;SDS011;51298;53.362;-1.518;2023-10-09T03:33:47;4.05;;;1.70;;
22019;SDS011;51298;53.362;-1.518;2023-10-09T03:36:30;4.78;;;1.77;;
22019;SDS011;51298;53.362;-1.518;2023-10-09T03:39:15;4.40;;;1.65;;
22019;SDS011;51298;53.362;-1.518;2023-10-09T03:42:18;4.32;;;1.33;;
22019;SDS011;51298;53.362;-1.518;2023-10-09T03:45:06;7.72;;;1.70;;
22019;SDS011;51298;53.362;-1.518;2023-10-09T03:47:56;5.40;;;1.67;;
22019;SDS011;51298;53.362;-1.518;2023-10-09T03:50:53;4.80;;;1.50;;
22019;SDS011;51298;53.362;-1.518;2023-10-09T03:53:52;13.57;;;2.10;;
22019;SDS011;51298;53.362;-1.518;2023-10-09T03:56:36;6.20;;;1.83;;
22019;SDS011;51298;53.362;-1.518;2023-10-09T03:59:20;3.60;;;1.58;;
22019;SDS011;51298;53.362;-1.518;2023-10-09T04:02:05;6.40;;;2.00;;
22019;SDS011;51298;53.362;-1.518;2023-10-09T04:04:48;4.07;;;1.80;;
22019;SDS011;51298;53.362;-1.518;2023-10-09T04:07:34;5.18;;;1.77;;
22019;SDS011;51298;53.362;-1.518;2023-10-09T04:10:21;4.78;;;1.77;;
22019;SDS011;51298;53.362;-1.518;2023-10-09T04:13:24;5.82;;;1.98;;
22019;SDS011;51298;53.362;-1.518;2023-10-09T04:16:16;7.38;;;1.95;;
22019;SDS011;51298;53.362;-1.518;2023-10-09T04:19:16;5.32;;;2.05;;
22019;SDS011;51298;53.362;-1.518;2023-10-09T04:22:03;6.03;;;1.73;;
22019;SDS011;51298;53.362;-1.518;2023-10-09T04:24:50;5.95;;;1.83;;
22019;SDS011;51298;53.362;-1.518;2023-10-09T04:27:35;6.15;;;1.65;;
22019;SDS011;51298;53.362;-1.518;2023-10-09T04:30:21;4.75;;;1.40;;
22019;SDS011;51298;53.362;-1.518;2023-10-09T04:33:08;4.60;;;1.45;;
22019;SDS011;51298;53.362;-1.518;2023-10-09T04:36:07;3.28;;;1.55;;
22019;SDS011;51298;53.362;-1.518;2023-10-09T04:39:06;4.40;;;1.58;;
22019;SDS011;51298;53.362;-1.518;2023-10-09T04:41:49;8.85;;;2.28;;
22019;SDS011;51298;53.362;-1.518;2023-10-09T04:44:34;6.03;;;1.73;;
22019;SDS011;51298;53.362;-1.518;2023-10-09T04:47:20;2.88;;;1.40;;
22019;SDS011;51298;53.362;-1.518;2023-10-09T04:50:09;4.22;;;1.50;;
22019;SDS011;51298;53.362;-1.518;2023-10-09T04:52:55;7.15;;;1.50;;
22019;SDS011;51298;53.362;-1.518;2023-10-09T04:55:39;4.32;;;1.52;;
22019;SDS011;51298;53.362;-1.518;2023-10-09T04:58:27;7.05;;;2.00;;
22019;SDS011;51298;53.362;-1.518;2023-10-09T05:01:11;3.58;;;1.40;;
22019;SDS011;51298;53.362;-1.518;2023-10-09T05:04:00;8.77;;;1.90;;
22019;SDS011;51298;53.362;-1.518;2023-10-09T05:06:48;3.78;;;1.52;;
22019;SDS011;51298;53.362;-1.518;2023-10-09T05:09:41;5.68;;;1.60;;
22019;SDS011;51298;53.362;-1.518;2023-10-09T05:12:40;4.55;;;1.80;;
22019;SDS011;51298;53.362;-1.518;2023-10-09T05:15:30;5.00;;;1.77;;
22019;SDS011;51298;53.362;-1.518;2023-10-09T05:18:18;4.53;;;1.60;;
22019;SDS011;51298;53.362;-1.518;2023-10-09T05:21:04;4.60;;;1.83;;
22019;SDS011;51298;53.362;-1.518;2023-10-09T05:24:00;3.35;;;1.65;;
22019;SDS011;51298;53.362;-1.518;2023-10-09T05:27:03;4.70;;;1.88;;
22019;SDS011;51298;53.362;-1.518;2023-10-09T05:30:02;9.73;;;1.75;;
22019;SDS011;51298;53.362;-1.518;2023-10-09T05:33:05;5.85;;;1.50;;
22019;SDS011;51298;53.362;-1.518;2023-10-09T05:36:10;4.80;;;1.70;;
22019;SDS011;51298;53.362;-1.518;2023-10-09T05:39:09;5.90;;;1.60;;
22019;SDS011;51298;53.362;-1.518;2023-10-09T05:42:05;5.05;;;1.58;;
22019;SDS011;51298;53.362;-1.518;2023-10-09T05:44:53;5.18;;;1.65;;
22019;SDS011;51298;53.362;-1.518;2023-10-09T05:47:56;3.40;;;1.67;;
22019;SDS011;51298;53.362;-1.518;2023-10-09T05:50:41;5.25;;;1.90;;
22019;SDS011;51298;53.362;-1.518;2023-10-09T05:53:34;4.95;;;2.35;;
22019;SDS011;51298;53.362;-1.518;2023-10-09T05:56:27;5.32;;;1.70;;
22019;SDS011;51298;53.362;-1.518;2023-10-09T05:59:30;3.03;;;1.30;;
22019;SDS011;51298;53.362;-1.518;2023-10-09T06:02:37;5.28;;;1.63;;
22019;SDS011;51298;53.362;-1.518;2023-10-09T06:05:40;5.57;;;2.08;;
22019;SDS011;51298;53.362;-1.518;2023-10-09T06:08:25;4.40;;;1.90;;
22019;SDS011;51298;53.362;-1.518;2023-10-09T06:11:25;5.63;;;2.10;;
22019;SDS011;51298;53.362;-1.518;2023-10-09T06:14:19;4.68;;;1.55;;
22019;SDS011;51298;53.362;-1.518;2023-10-09T06:17:15;5.72;;;1.90;;
22019;SDS011;51298;53.362;-1.518;2023-10-09T06:20:10;6.68;;;2.08;;
22019;SDS011;51298;53.362;-1.518;2023-10-09T06:23:15;3.78;;;1.90;;
22019;SDS011;51298;53.362;-1.518;2023-10-09T06:26:02;4.68;;;1.70;;
22019;SDS011;51298;53.362;-1.518;2023-10-09T06:29:06;6.45;;;1.75;;
22019;SDS011;51298;53.362;-1.518;2023-10-09T06:32:04;8.07;;;2.25;;
22019;SDS011;51298;53.362;-1.518;2023-10-09T06:35:07;5.13;;;1.90;;
22019;SDS011;51298;53.362;-1.518;2023-10-09T06:38:04;6.18;;;1.90;;
22019;SDS011;51298;53.362;-1.518;2023-10-09T06:41:07;4.22;;;1.70;;
22019;SDS011;51298;53.362;-1.518;2023-10-09T06:44:10;8.40;;;2.33;;
22019;SDS011;51298;53.362;-1.518;2023-10-09T06:47:14;6.78;;;2.25;;
22019;SDS011;51298;53.362;-1.518;2023-10-09T06:50:02;7.03;;;2.20;;
22019;SDS011;51298;53.362;-1.518;2023-10-09T06:53:12;5.05;;;2.20;;
22019;SDS011;51298;53.362;-1.518;2023-10-09T06:55:56;7.22;;;1.90;;
22019;SDS011;51298;53.362;-1.518;2023-10-09T06:58:50;4.50;;;1.58;;
22019;SDS011;51298;53.362;-1.518;2023-10-09T07:01:38;7.90;;;1.55;;
22019;SDS011;51298;53.362;-1.518;2023-10-09T07:04:22;4.57;;;1.95;;
22019;SDS011;51298;53.362;-1.518;2023-10-09T07:07:21;4.78;;;1.80;;
22019;SDS011;51298;53.362;-1.518;2023-10-09T07:10:42;5.95;;;2.05;;
22019;SDS011;51298;53.362;-1.518;2023-10-09T07:13:26;6.50;;;2.10;;
22019;SDS011;51298;53.362;-1.518;2023-10-09T07:16:11;6.95;;;2.10;;
22019;SDS011;51298;53.362;-1.518;2023-10-09T07:19:07;6.07;;;2.00;;
22019;SDS011;51298;53.362;-1.518;2023-10-09T07:22:15;13.88;;;2.35;;
22019;SDS011;51298;53.362;-1.518;2023-10-09T07:25:05;4.35;;;2.15;;
22019;SDS011;51298;53.362;-1.518;2023-10-09T07:28:01;7.47;;;2.30;;
22019;SDS011;51298;53.362;-1.518;2023-10-09T07:30:47;5.57;;;1.92;;
22019;SDS011;51298;53.362;-1.518;2023-10-09T07:33:31;8.40;;;2.25;;
22019;SDS011;51298;53.362;-1.518;2023-10-09T07:36:36;3.78;;;1.70;;
22019;SDS011;51298;53.362;-1.518;2023-10-09T07:39:22;3.70;;;1.67;;
22019;SDS011;51298;53.362;-1.518;2023-10-09T07:42:09;6.03;;;2.15;;
22019;SDS011;51298;53.362;-1.518;2023-10-09T07:45:02;4.97;;;2.17;;
22019;SDS011;51298;53.362;-1.518;2023-10-09T07:48:04;4.85;;;1.77;;
22019;SDS011;51298;53.362;-1.518;2023-10-09T07:50:49;7.85;;;2.13;;
22019;SDS011;51298;53.362;-1.518;2023-10-09T07:53:33;6.32;;;2.40;;
22019;SDS011;51298;53.362;-1.518;2023-10-09T07:56:26;7.97;;;2.00;;
22019;SDS011;51298;53.362;-1.518;2023-10-09T07:59:14;5.97;;;2.10;;
22019;SDS011;51298;53.362;-1.518;2023-10-09T08:02:01;6.45;;;1.85;;
22019;SDS011;51298;53.362;-1.518;2023-10-09T08:04:49;6.25;;;2.15;;
22019;SDS011;51298;53.362;-1.518;2023-10-09T08:07:37;6.63;;;1.77;;
22019;SDS011;51298;53.362;-1.518;2023-10-09T08:10:21;4.72;;;1.80;;
22019;SDS011;51298;53.362;-1.518;2023-10-09T08:13:04;9.40;;;2.30;;
22019;SDS011;51298;53.362;-1.518;2023-10-09T08:16:24;9.35;;;2.15;;
22019;SDS011;51298;53.362;-1.518;2023-10-09T08:19:19;4.32;;;1.98;;
22019;SDS011;51298;53.362;-1.518;2023-10-09T08:22:34;3.70;;;2.00;;
22019;SDS011;51298;53.362;-1.518;2023-10-09T08:25:34;7.25;;;2.40;;
22019;SDS011;51298;53.362;-1.518;2023-10-09T08:28:20;5.50;;;2.30;;
22019;SDS011;51298;53.362;-1.518;2023-10-09T08:31:23;7.93;;;2.10;;
22019;SDS011;51298;53.362;-1.518;2023-10-09T08:34:29;11.32;;;2.13;;
22019;SDS011;51298;53.362;-1.518;2023-10-09T08:37:32;6.85;;;1.92;;
22019;SDS011;51298;53.362;-1.518;2023-10-09T08:40:16;3.80;;;1.70;;
22019;SDS011;51298;53.362;-1.518;2023-10-09T08:43:09;4.85;;;2.05;;
22019;SDS011;51298;53.362;-1.518;2023-10-09T08:45:54;4.87;;;1.83;;
22019;SDS011;51298;53.362;-1.518;2023-10-09T08:48:44;8.55;;;1.85;;
22019;SDS011;51298;53.362;-1.518;2023-10-09T08:51:32;4.50;;;1.88;;
22019;SDS011;51298;53.362;-1.518;2023-10-09T08:54:19;3.90;;;1.75;;
22019;SDS011;51298;53.362;-1.518;2023-10-09T08:57:03;6.10;;;1.70;;
22019;SDS011;51298;53.362;-1.518;2023-10-09T08:59:53;7.15;;;1.60;;
22019;SDS011;51298;53.362;-1.518;2023-10-09T09:02:37;3.22;;;1.40;;
22019;SDS011;51298;53.362;-1.518;2023-10-09T09:05:21;5.85;;;1.65;;
22019;SDS011;51298;53.362;-1.518;2023-10-09T09:08:08;2.40;;;1.30;;
22019;SDS011;51298;53.362;-1.518;2023-10-09T09:11:07;3.63;;;1.35;;
22019;SDS011;51298;53.362;-1.518;2023-10-09T09:14:04;3.63;;;1.35;;
22019;SDS011;51298;53.362;-1.518;2023-10-09T09:16:49;1.92;;;1.20;;
22019;SDS011;51298;53.362;-1.518;2023-10-09T09:19:33;6.93;;;1.52;;
22019;SDS011;51298;53.362;-1.518;2023-10-09T09:22:21;1.77;;;1.02;;
22019;SDS011;51298;53.362;-1.518;2023-10-09T09:25:05;3.45;;;1.38;;
22019;SDS011;51298;53.362;-1.518;2023-10-09T09:27:53;4.82;;;1.60;;
22019;SDS011;51298;53.362;-1.518;2023-10-09T09:30:39;5.07;;;1.30;;
22019;SDS011;51298;53.362;-1.518;2023-10-09T09:33:25;4.53;;;1.92;;
22019;SDS011;51298;53.362;-1.518;2023-10-09T09:36:26;1.48;;;0.88;;
22019;SDS011;51298;53.362;-1.518;2023-10-09T09:39:16;3.20;;;1.30;;
22019;SDS011;51298;53.362;-1.518;2023-10-09T09:42:02;3.20;;;1.23;;
22019;SDS011;51298;53.362;-1.518;2023-10-09T09:44:58;4.93;;;1.48;;
22019;SDS011;51298;53.362;-1.518;2023-10-09T09:47:44;4.93;;;1.58;;
22019;SDS011;51298;53.362;-1.518;2023-10-09T09:50:35;2.35;;;0.90;;
22019;SDS011;51298;53.362;-1.518;2023-10-09T09:53:27;4.28;;;1.52;;
22019;SDS011;51298;53.362;-1.518;2023-10-09T09:56:16;1.80;;;1.08;;
22019;SDS011;51298;53.362;-1.518;2023-10-09T09:59:02;1.52;;;1.00;;
22019;SDS011;51298;53.362;-1.518;2023-10-09T10:01:51;2.90;;;1.03;;
22019;SDS011;51298;53.362;-1.518;2023-10-09T10:04:44;5.57;;;1.40;;
22019;SDS011;51298;53.362;-1.518;2023-10-09T10:07:34;2.15;;;1.00;;
22019;SDS011;51298;53.362;-1.518;2023-10-09T10:13:54;2.53;;;1.13;;
22019;SDS011;51298;53.362;-1.518;2023-10-09T10:16:25;2.35;;;1.00;;
22019;SDS011;51298;53.362;-1.518;2023-10-09T10:19:18;1.90;;;1.08;;
22019;SDS011;51298;53.362;-1.518;2023-10-09T10:22:17;2.25;;;1.17;;
22019;SDS011;51298;53.362;-1.518;2023-10-09T10:25:06;1.60;;;0.80;;
22019;SDS011;51298;53.362;-1.518;2023-10-09T10:28:15;2.75;;;1.25;;
22019;SDS011;51298;53.362;-1.518;2023-10-09T10:30:58;5.15;;;1.08;;
22019;SDS011;51298;53.362;-1.518;2023-10-09T10:34:02;2.00;;;1.23;;
22019;SDS011;51298;53.362;-1.518;2023-10-09T10:36:51;2.55;;;1.20;;
22019;SDS011;51298;53.362;-1.518;2023-10-09T10:39:51;2.33;;;1.30;;
22019;SDS011;51298;53.362;-1.518;2023-10-09T10:42:35;1.98;;;1.02;;
22019;SDS011;51298;53.362;-1.518;2023-10-09T10:45:19;2.92;;;0.98;;
22019;SDS011;51298;53.362;-1.518;2023-10-09T10:48:18;1.88;;;1.10;;
22019;SDS011;51298;53.362;-1.518;2023-10-09T10:51:21;1.73;;;1.00;;
22019;SDS011;51298;53.362;-1.518;2023-10-09T10:54:06;1.50;;;0.90;;
22019;SDS011;51298;53.362;-1.518;2023-10-09T11:00:10;38.45;;;16.83;;
22019;SDS011;51298;53.362;-1.518;2023-10-09T11:03:17;38.83;;;15.52;;
22019;SDS011;51298;53.362;-1.518;2023-10-09T11:06:03;17.40;;;8.80;;
22019;SDS011;51298;53.362;-1.518;2023-10-09T11:08:57;15.55;;;6.80;;
22019;SDS011;51298;53.362;-1.518;2023-10-09T11:11:52;12.65;;;5.38;;
22019;SDS011;51298;53.362;-1.518;2023-10-09T11:14:55;11.75;;;5.13;;
22019;SDS011;51298;53.362;-1.518;2023-10-09T11:18:09;8.73;;;3.95;;
22019;SDS011;51298;53.362;-1.518;2023-10-09T11:21:10;14.77;;;6.22;;
22019;SDS011;51298;53.362;-1.518;2023-10-09T11:23:54;17.90;;;7.55;;
22019;SDS011;51298;53.362;-1.518;2023-10-09T11:26:42;29.85;;;12.27;;
22019;SDS011;51298;53.362;-1.518;2023-10-09T11:29:26;34.78;;;14.88;;
22019;SDS011;51298;53.362;-1.518;2023-10-09T11:32:15;33.45;;;14.02;;
22019;SDS011;51298;53.362;-1.518;2023-10-09T11:35:12;28.20;;;12.40;;
22019;SDS011;51298;53.362;-1.518;2023-10-09T11:38:11;19.08;;;7.80;;
22019;SDS011;51298;53.362;-1.518;2023-10-09T11:41:39;28.38;;;12.07;;
22019;SDS011;51298;53.362;-1.518;2023-10-09T11:44:33;27.95;;;11.77;;
22019;SDS011;51298;53.362;-1.518;2023-10-09T11:47:18;50.88;;;19.33;;
22019;SDS011;51298;53.362;-1.518;2023-10-09T11:50:01;34.40;;;14.32;;
22019;SDS011;51298;53.362;-1.518;2023-10-09T11:52:55;21.63;;;8.80;;
22019;SDS011;51298;53.362;-1.518;2023-10-09T11:55:59;26.27;;;11.27;;
22019;SDS011;51298;53.362;-1.518;2023-10-09T11:58:45;29.25;;;12.23;;
22019;SDS011;51298;53.362;-1.518;2023-10-09T12:04:21;23.55;;;9.95;;
22019;SDS011;51298;53.362;-1.518;2023-10-09T12:07:14;39.03;;;14.80;;
22019;SDS011;51298;53.362;-1.518;2023-10-09T12:09:58;39.05;;;16.05;;
22019;SDS011;51298;53.362;-1.518;2023-10-09T12:12:42;38.03;;;15.95;;
22019;SDS011;51298;53.362;-1.518;2023-10-09T12:15:31;39.72;;;17.50;;
22019;SDS011;51298;53.362;-1.518;2023-10-09T12:18:21;45.20;;;17.48;;
22019;SDS011;51298;53.362;-1.518;2023-10-09T12:21:08;47.72;;;19.60;;
22019;SDS011;51298;53.362;-1.518;2023-10-09T12:23:52;49.88;;;19.52;;
22019;SDS011;51298;53.362;-1.518;2023-10-09T12:26:41;42.63;;;18.38;;
22019;SDS011;51298;53.362;-1.518;2023-10-09T12:29:26;41.25;;;15.52;;
22019;SDS011;51298;53.362;-1.518;2023-10-09T12:32:19;20.60;;;8.82;;
22019;SDS011;51298;53.362;-1.518;2023-10-09T12:35:04;15.25;;;6.07;;
22019;SDS011;51298;53.362;-1.518;2023-10-09T12:38:00;5.47;;;2.40;;
22019;SDS011;51298;53.362;-1.518;2023-10-09T12:40:45;11.57;;;4.63;;
22019;SDS011;51298;53.362;-1.518;2023-10-09T12:43:35;16.33;;;6.78;;
22019;SDS011;51298;53.362;-1.518;2023-10-09T12:46:21;14.35;;;6.63;;
22019;SDS011;51298;53.362;-1.518;2023-10-09T12:49:09;17.55;;;6.80;;
22019;SDS011;51298;53.362;-1.518;2023-10-09T12:51:54;36.75;;;14.93;;
22019;SDS011;51298;53.362;-1.518;2023-10-09T12:54:38;20.13;;;8.73;;
22019;SDS011;51298;53.362;-1.518;2023-10-09T12:57:22;23.48;;;9.40;;
22019;SDS011;51298;53.362;-1.518;2023-10-09T13:00:07;21.17;;;7.43;;
22019;SDS011;51298;53.362;-1.518;2023-10-09T13:02:55;18.08;;;7.13;;
22019;SDS011;51298;53.362;-1.518;2023-10-09T13:05:39;22.33;;;10.30;;
22019;SDS011;51298;53.362;-1.518;2023-10-09T13:08:35;27.60;;;12.43;;
22019;SDS011;51298;53.362;-1.518;2023-10-09T13:11:20;46.63;;;20.45;;
22019;SDS011;51298;53.362;-1.518;2023-10-09T13:14:04;67.20;;;28.38;;
22019;SDS011;51298;53.362;-1.518;2023-10-09T13:17:06;68.43;;;28.50;;
22019;SDS011;51298;53.362;-1.518;2023-10-09T13:19:54;73.13;;;32.00;;
22019;SDS011;51298;53.362;-1.518;2023-10-09T13:22:40;67.00;;;25.77;;
22019;SDS011;51298;53.362;-1.518;2023-10-09T13:25:25;41.70;;;18.10;;
22019;SDS011;51298;53.362;-1.518;2023-10-09T13:28:10;42.83;;;18.20;;
22019;SDS011;51298;53.362;-1.518;2023-10-09T13:30:53;99.13;;;42.30;;
22019;SDS011;51298;53.362;-1.518;2023-10-09T13:33:39;124.22;;;50.70;;
22019;SDS011;51298;53.362;-1.518;2023-10-09T13:36:23;137.35;;;55.03;;
22019;SDS011;51298;53.362;-1.518;2023-10-09T13:39:18;113.43;;;47.25;;
22019;SDS011;51298;53.362;-1.518;2023-10-09T13:42:08;127.32;;;53.33;;
22019;SDS011;51298;53.362;-1.518;2023-10-09T13:44:52;120.85;;;49.75;;
22019;SDS011;51298;53.362;-1.518;2023-10-09T13:47:39;79.30;;;33.25;;
22019;SDS011;51298;53.362;-1.518;2023-10-09T13:50:24;89.63;;;37.83;;
22019;SDS011;51298;53.362;-1.518;2023-10-09T13:53:12;58.53;;;26.13;;
22019;SDS011;51298;53.362;-1.518;2023-10-09T13:55:58;37.63;;;16.95;;
22019;SDS011;51298;53.362;-1.518;2023-10-09T13:58:42;51.35;;;21.92;;
22019;SDS011;51298;53.362;-1.518;2023-10-09T14:01:26;53.70;;;22.40;;
22019;SDS011;51298;53.362;-1.518;2023-10-09T14:04:10;50.15;;;20.35;;
22019;SDS011;51298;53.362;-1.518;2023-10-09T14:07:01;48.35;;;22.48;;
22019;SDS011;51298;53.362;-1.518;2023-10-09T14:09:49;52.97;;;21.27;;
22019;SDS011;51298;53.362;-1.518;2023-10-09T14:12:39;55.30;;;21.75;;
22019;SDS011;51298;53.362;-1.518;2023-10-09T14:15:24;52.83;;;23.00;;
22019;SDS011;51298;53.362;-1.518;2023-10-09T14:18:08;53.30;;;23.23;;
22019;SDS011;51298;53.362;-1.518;2023-10-09T14:20:55;47.97;;;19.17;;
22019;SDS011;51298;53.362;-1.518;2023-10-09T14:23:40;28.73;;;12.98;;
22019;SDS011;51298;53.362;-1.518;2023-10-09T14:26:31;20.77;;;10.27;;
22019;SDS011;51298;53.362;-1.518;2023-10-09T14:29:18;25.63;;;11.02;;
22019;SDS011;51298;53.362;-1.518;2023-10-09T14:32:03;34.53;;;15.02;;
22019;SDS011;51298;53.362;-1.518;2023-10-09T14:34:47;60.58;;;25.42;;
22019;SDS011;51298;53.362;-1.518;2023-10-09T14:37:35;58.80;;;26.48;;
22019;SDS011;51298;53.362;-1.518;2023-10-09T14:40:19;100.97;;;38.75;;
22019;SDS011;51298;53.362;-1.518;2023-10-09T14:43:05;85.53;;;38.20;;
22019;SDS011;51298;53.362;-1.518;2023-10-09T14:45:51;78.78;;;35.08;;
22019;SDS011;51298;53.362;-1.518;2023-10-09T14:48:37;79.07;;;35.50;;
22019;SDS011;51298;53.362;-1.518;2023-10-09T14:51:22;65.63;;;30.35;;
22019;SDS011;51298;53.362;-1.518;2023-10-09T14:54:16;75.28;;;30.63;;
22019;SDS011;51298;53.362;-1.518;2023-10-09T14:57:02;74.43;;;29.73;;
22019;SDS011;51298;53.362;-1.518;2023-10-09T14:59:49;72.75;;;27.33;;
22019;SDS011;51298;53.362;-1.518;2023-10-09T15:02:33;55.90;;;22.33;;
22019;SDS011;51298;53.362;-1.518;2023-10-09T15:05:20;57.38;;;22.08;;
22019;SDS011;51298;53.362;-1.518;2023-10-09T15:08:06;69.38;;;26.42;;
22019;SDS011;51298;53.362;-1.518;2023-10-09T15:10:54;62.83;;;24.85;;
22019;SDS011;51298;53.362;-1.518;2023-10-09T15:13:41;64.10;;;25.98;;
22019;SDS011;51298;53.362;-1.518;2023-10-09T15:16:25;66.03;;;26.08;;
22019;SDS011;51298;53.362;-1.518;2023-10-09T15:19:15;73.38;;;31.55;;
22019;SDS011;51298;53.362;-1.518;2023-10-09T15:22:00;62.78;;;26.70;;
22019;SDS011;51298;53.362;-1.518;2023-10-09T15:24:45;47.67;;;19.05;;
22019;SDS011;51298;53.362;-1.518;2023-10-09T15:27:32;41.88;;;17.95;;
22019;SDS011;51298;53.362;-1.518;2023-10-09T15:30:16;34.40;;;12.75;;
22019;SDS011;51298;53.362;-1.518;2023-10-09T15:33:00;20.65;;;9.27;;
22019;SDS011;51298;53.362;-1.518;2023-10-09T15:35:44;15.43;;;6.47;;
22019;SDS011;51298;53.362;-1.518;2023-10-09T15:38:33;11.20;;;5.07;;
22019;SDS011;51298;53.362;-1.518;2023-10-09T15:41:17;6.40;;;3.30;;
22019;SDS011;51298;53.362;-1.518;2023-10-09T15:44:05;6.30;;;2.53;;
22019;SDS011;51298;53.362;-1.518;2023-10-09T15:46:50;7.53;;;2.63;;
22019;SDS011;51298;53.362;-1.518;2023-10-09T15:49:34;4.57;;;2.08;;
22019;SDS011;51298;53.362;-1.518;2023-10-09T15:52:25;5.38;;;1.73;;
22019;SDS011;51298;53.362;-1.518;2023-10-09T15:55:12;3.47;;;1.60;;
22019;SDS011;51298;53.362;-1.518;2023-10-09T15:57:57;3.85;;;1.50;;
22019;SDS011;51298;53.362;-1.518;2023-10-09T16:00:44;4.07;;;1.50;;
22019;SDS011;51298;53.362;-1.518;2023-10-09T16:03:32;6.50;;;2.35;;
22019;SDS011;51298;53.362;-1.518;2023-10-09T16:06:17;4.88;;;2.15;;
22019;SDS011;51298;53.362;-1.518;2023-10-09T16:09:01;6.22;;;2.50;;
22019;SDS011;51298;53.362;-1.518;2023-10-09T16:11:45;5.57;;;2.35;;
22019;SDS011;51298;53.362;-1.518;2023-10-09T16:14:31;4.40;;;1.85;;
22019;SDS011;51298;53.362;-1.518;2023-10-09T16:17:15;7.35;;;1.92;;
22019;SDS011;51298;53.362;-1.518;2023-10-09T16:20:03;7.47;;;2.95;;
22019;SDS011;51298;53.362;-1.518;2023-10-09T16:22:49;4.13;;;2.08;;
22019;SDS011;51298;53.362;-1.518;2023-10-09T16:25:34;4.47;;;1.80;;
22019;SDS011;51298;53.362;-1.518;2023-10-09T16:28:18;4.05;;;1.58;;
22019;SDS011;51298;53.362;-1.518;2023-10-09T16:31:02;6.10;;;2.60;;
22019;SDS011;51298;53.362;-1.518;2023-10-09T16:33:49;4.20;;;1.65;;
22019;SDS011;51298;53.362;-1.518;2023-10-09T16:36:33;2.90;;;1.63;;
22019;SDS011;51298;53.362;-1.518;2023-10-09T16:39:17;3.10;;;1.60;;
22019;SDS011;51298;53.362;-1.518;2023-10-09T16:42:06;6.03;;;1.77;;
22019;SDS011;51298;53.362;-1.518;2023-10-09T16:44:53;3.90;;;1.60;;
22019;SDS011;51298;53.362;-1.518;2023-10-09T16:47:40;5.97;;;1.63;;
22019;SDS011;51298;53.362;-1.518;2023-10-09T16:50:24;4.28;;;1.63;;
22019;SDS011;51298;53.362;-1.518;2023-10-09T16:53:12;5.20;;;1.88;;